Time;durP1;ratioP1;P1;durP2;ratioP2;P2;SDS_P1;SDS_P2;PMS_P1;PMS_P2;Temp;Humidity;BMP_temperature;BMP_pressure;BME280_temperature;BME280_humidity;BME280_pressure;Samples;Min_cycle;Max_cycle;Signal;HPM_P1;HPM_P2
2022/12/17 13:06:53;;;;;;;21.88;12.95;;;-0.20;99.90;;;;;;5055178;28;20060;-68
2022/12/17 13:09:36;;;;;;;22.02;11.13;;;-0.20;99.90;;;;;;5037505;28;20099;-69
2022/12/17 13:12:01;;;;;;;33.72;14.63;;;-0.20;99.90;;;;;;5037208;28;20091;-68
2022/12/17 13:14:41;;;;;;;36.45;14.13;;;-0.20;99.90;;;;;;5054814;28;20037;-68
2022/12/17 13:17:36;;;;;;;29.08;14.77;;;-0.20;99.90;;;;;;5054949;28;20439;-68
2022/12/17 13:20:28;;;;;;;30.33;13.52;;;-0.20;99.90;;;;;;5037294;28;20060;-68
2022/12/17 13:23:28;;;;;;;31.20;14.57;;;-0.20;99.90;;;;;;5037390;28;20491;-68
2022/12/17 13:26:32;;;;;;;31.80;15.65;;;-0.10;99.90;;;;;;5023122;28;20095;-69
2022/12/17 13:29:01;;;;;;;36.88;12.65;;;-0.10;99.90;;;;;;5036948;28;20403;-68
2022/12/17 13:31:50;;;;;;;36.58;13.93;;;-0.10;99.90;;;;;;5036990;28;20059;-68
2022/12/17 13:34:48;;;;;;;24.40;13.13;;;-0.10;99.90;;;;;;5036898;28;20051;-68
2022/12/17 13:37:39;;;;;;;28.75;13.82;;;-0.10;99.90;;;;;;5036840;28;20049;-68
2022/12/17 13:40:27;;;;;;;24.92;13.32;;;-0.10;99.90;;;;;;5036875;28;20049;-68
2022/12/17 13:42:53;;;;;;;25.23;12.77;;;0.00;99.90;;;;;;5036808;28;20057;-68
2022/12/17 13:45:23;;;;;;;32.88;12.45;;;0.00;99.90;;;;;;5036752;28;20047;-67
2022/12/17 13:47:54;;;;;;;29.08;14.73;;;0.00;99.90;;;;;;5036958;28;20072;-67
2022/12/17 13:50:29;;;;;;;30.38;12.90;;;0.00;99.90;;;;;;5054907;28;20546;-67
2022/12/17 13:52:55;;;;;;;29.90;13.85;;;-0.10;99.90;;;;;;5054436;28;20040;-67
2022/12/17 13:55:24;;;;;;;34.03;13.50;;;-0.10;99.90;;;;;;5036384;28;20055;-67
2022/12/17 13:57:51;;;;;;;38.72;15.27;;;-0.20;99.90;;;;;;5054676;28;20090;-66
2022/12/17 14:00:28;;;;;;;30.70;13.50;;;-0.20;99.90;;;;;;5054579;28;20079;-67
2022/12/17 14:02:54;;;;;;;26.45;11.98;;;-0.20;99.90;;;;;;5054506;28;20129;-68
2022/12/17 14:05:36;;;;;;;31.25;13.40;;;-0.20;99.90;;;;;;5036363;28;20567;-68
2022/12/17 14:08:04;;;;;;;37.40;13.45;;;-0.30;99.90;;;;;;5036323;28;20045;-67
2022/12/17 14:10:30;;;;;;;20.20;10.20;;;-0.30;99.90;;;;;;5054044;28;20549;-66
2022/12/17 14:13:12;;;;;;;22.30;10.85;;;-0.30;99.90;;;;;;5054174;28;20576;-67
2022/12/17 14:15:43;;;;;;;39.20;15.15;;;-0.30;99.90;;;;;;5054065;28;20041;-67
2022/12/17 14:18:14;;;;;;;35.08;15.20;;;-0.30;99.90;;;;;;5053929;28;20092;-67
2022/12/17 14:20:40;;;;;;;29.48;15.15;;;-0.30;99.90;;;;;;5054210;28;20037;-67
2022/12/17 14:23:27;;;;;;;23.40;12.27;;;-0.30;99.90;;;;;;5036165;28;20087;-67
2022/12/17 14:25:53;;;;;;;24.88;13.43;;;-0.30;99.90;;;;;;5036247;28;20041;-66
2022/12/17 14:28:31;;;;;;;19.70;10.77;;;-0.40;99.90;;;;;;5035941;28;20045;-67
2022/12/17 14:31:19;;;;;;;27.98;15.05;;;-0.40;99.90;;;;;;5036112;28;20040;-67
2022/12/17 14:33:46;;;;;;;29.80;13.30;;;-0.50;99.90;;;;;;5035708;28;20045;-66
2022/12/17 14:36:14;;;;;;;28.42;12.90;;;-0.50;99.90;;;;;;5053764;28;20044;-67
2022/12/17 14:38:52;;;;;;;29.02;12.23;;;-0.60;99.90;;;;;;5053745;28;20045;-66
2022/12/17 14:44:02;;;;;;;18.77;11.65;;;-0.70;99.90;;;;;;5053615;28;20037;-66
2022/12/17 14:46:30;;;;;;;32.83;15.80;;;-0.70;99.90;;;;;;5053523;28;20060;-67
2022/12/17 14:49:00;;;;;;;26.60;11.38;;;-0.80;99.90;;;;;;5053498;28;20443;-67
2022/12/17 14:51:39;;;;;;;28.98;13.57;;;-0.80;99.90;;;;;;5053186;28;20083;-66
2022/12/17 14:54:24;;;;;;;20.80;11.90;;;-0.80;99.90;;;;;;5053046;28;20052;-66
2022/12/17 14:56:53;;;;;;;29.73;12.50;;;-0.80;99.90;;;;;;5053298;28;20041;-66
2022/12/17 14:59:28;;;;;;;30.20;14.88;;;-0.80;99.90;;;;;;5053386;28;20091;-66
2022/12/17 15:01:54;;;;;;;22.60;11.05;;;-0.80;99.90;;;;;;5053372;28;20041;-67
2022/12/17 15:04:21;;;;;;;29.48;12.63;;;-0.90;99.90;;;;;;5034855;28;20056;-66
2022/12/17 15:06:47;;;;;;;30.15;11.75;;;-0.90;99.90;;;;;;5052421;28;20128;-67
2022/12/17 15:09:13;;;;;;;26.30;10.73;;;-0.90;99.90;;;;;;5034994;28;20088;-66
2022/12/17 15:11:39;;;;;;;26.13;12.65;;;-1.00;99.90;;;;;;5034973;28;20436;-67
2022/12/17 15:14:05;;;;;;;33.80;14.00;;;-1.00;99.90;;;;;;5053130;28;20088;-66
2022/12/17 15:16:30;;;;;;;32.08;11.38;;;-1.00;99.90;;;;;;5053014;28;20036;-67
2022/12/17 15:18:56;;;;;;;23.05;10.65;;;-1.00;99.90;;;;;;5034993;28;20052;-67
2022/12/17 15:21:24;;;;;;;31.15;13.07;;;-1.10;99.90;;;;;;5018713;28;20048;-67
2022/12/17 15:23:50;;;;;;;27.98;10.63;;;-1.10;99.90;;;;;;5052672;28;20078;-68
2022/12/17 15:26:16;;;;;;;32.15;13.30;;;-1.10;99.90;;;;;;5052869;28;20041;-66
2022/12/17 15:28:42;;;;;;;24.25;11.43;;;-1.10;99.90;;;;;;5034746;28;20041;-67
2022/12/17 15:31:12;;;;;;;32.50;13.18;;;-1.10;99.90;;;;;;5034742;28;20045;-66
2022/12/17 15:33:38;;;;;;;23.27;11.30;;;-1.20;99.90;;;;;;5052795;28;20412;-67
2022/12/17 15:36:04;;;;;;;16.42;5.70;;;-1.30;99.90;;;;;;5018109;28;20045;-67
2022/12/17 15:38:29;;;;;;;34.15;10.68;;;-1.30;99.90;;;;;;5052755;28;20443;-66
2022/12/17 15:40:58;;;;;;;21.88;11.55;;;-1.40;99.90;;;;;;5052729;28;20085;-67
2022/12/17 15:43:23;;;;;;;26.08;12.50;;;-1.40;99.90;;;;;;5018240;28;20072;-66
2022/12/17 15:45:50;;;;;;;26.70;9.35;;;-1.40;99.90;;;;;;5034958;28;20084;-66
2022/12/17 15:48:19;;;;;;;29.25;11.07;;;-1.50;99.90;;;;;;5034718;28;20128;-67
2022/12/17 15:50:45;;;;;;;12.52;6.65;;;-1.50;99.90;;;;;;5034655;28;20053;-67
2022/12/17 15:53:12;;;;;;;27.58;11.13;;;-1.50;99.90;;;;;;5034815;28;20037;-66
2022/12/17 15:55:38;;;;;;;24.77;10.80;;;-1.50;99.90;;;;;;5018008;28;20102;-66
2022/12/17 15:58:04;;;;;;;27.65;11.60;;;-1.60;99.90;;;;;;5052448;28;20119;-66
2022/12/17 16:00:30;;;;;;;29.13;14.13;;;-1.50;99.90;;;;;;5034746;28;20039;-67
2022/12/17 16:02:55;;;;;;;23.35;13.07;;;-1.50;99.90;;;;;;5052637;28;20041;-66
2022/12/17 16:05:21;;;;;;;26.55;11.88;;;-1.60;99.90;;;;;;5034369;28;20037;-66
2022/12/17 16:07:48;;;;;;;21.25;11.40;;;-1.50;99.90;;;;;;5052289;28;20459;-66
2022/12/17 16:10:14;;;;;;;23.73;12.68;;;-1.60;99.90;;;;;;5052616;28;20399;-66
2022/12/17 16:12:39;;;;;;;20.02;9.57;;;-1.30;99.90;;;;;;5052591;28;20037;-66
2022/12/17 16:15:07;;;;;;;33.47;12.98;;;-1.50;99.90;;;;;;5052257;28;20102;-66
2022/12/17 16:17:33;;;;;;;29.58;13.38;;;-1.60;99.90;;;;;;5052448;28;20488;-66
2022/12/17 16:19:59;;;;;;;30.45;13.40;;;-1.60;99.90;;;;;;5056100;28;20048;-66
2022/12/17 16:22:25;;;;;;;29.88;12.05;;;-1.60;99.90;;;;;;5056355;28;20053;-67
2022/12/17 16:24:51;;;;;;;30.15;13.63;;;-1.60;99.90;;;;;;5038366;28;20033;-66
2022/12/17 16:27:17;;;;;;;26.90;13.15;;;-1.60;99.90;;;;;;5055905;28;20124;-66
2022/12/17 16:29:46;;;;;;;33.95;14.15;;;-1.60;99.90;;;;;;5056238;28;20515;-65
2022/12/17 16:32:13;;;;;;;26.88;11.32;;;-1.60;99.90;;;;;;5056193;28;20072;-65
2022/12/17 16:34:42;;;;;;;35.00;12.63;;;-1.60;99.90;;;;;;5056168;28;20434;-66
2022/12/17 16:37:08;;;;;;;31.98;12.55;;;-1.60;99.90;;;;;;5037865;28;20076;-66
2022/12/17 16:39:34;;;;;;;46.30;13.35;;;-1.60;99.90;;;;;;5056028;28;20079;-66
2022/12/17 16:41:59;;;;;;;19.33;10.75;;;-1.60;99.90;;;;;;5055945;28;20048;-66
2022/12/17 16:44:25;;;;;;;28.05;12.65;;;-1.60;99.90;;;;;;5055785;28;20037;-66
2022/12/17 16:46:51;;;;;;;29.98;12.02;;;-1.60;99.90;;;;;;5055645;28;20075;-67
2022/12/17 16:49:19;;;;;;;30.85;12.90;;;-1.60;99.90;;;;;;5055811;28;20037;-67
2022/12/17 16:51:48;;;;;;;30.42;10.77;;;-1.60;99.90;;;;;;5055720;28;20433;-69
2022/12/17 16:54:17;;;;;;;25.60;9.50;;;-1.60;99.90;;;;;;5055266;28;20495;-67
2022/12/17 16:56:44;;;;;;;27.95;11.30;;;-1.70;99.90;;;;;;5055137;28;20037;-67
2022/12/17 16:59:12;;;;;;;25.10;13.32;;;-1.60;99.90;;;;;;5055369;28;20041;-67
2022/12/17 17:01:39;;;;;;;18.55;8.85;;;-1.70;99.90;;;;;;5055631;28;20400;-67
2022/12/17 17:04:07;;;;;;;27.88;11.52;;;-1.70;99.90;;;;;;5020751;28;20051;-65
2022/12/17 17:06:41;;;;;;;30.13;11.25;;;-1.80;99.90;;;;;;5055408;28;20547;-64
2022/12/17 17:09:08;;;;;;;11.40;5.95;;;-1.80;99.90;;;;;;5055414;28;20504;-66
2022/12/17 17:11:33;;;;;;;32.50;12.30;;;-1.80;99.90;;;;;;5055358;28;20044;-64
2022/12/17 17:13:59;;;;;;;27.98;9.55;;;-1.80;99.90;;;;;;5055001;28;20515;-63
2022/12/17 17:16:26;;;;;;;22.40;11.30;;;-1.90;99.90;;;;;;5037381;28;20040;-63
2022/12/17 17:18:52;;;;;;;21.73;10.23;;;-1.90;99.90;;;;;;5037200;28;20116;-65
2022/12/17 17:21:17;;;;;;;19.20;11.27;;;-1.70;99.90;;;;;;5055166;28;20403;-65
2022/12/17 17:23:44;;;;;;;18.02;8.82;;;-1.90;99.90;;;;;;5037017;28;20052;-64
2022/12/17 17:26:10;;;;;;;23.38;10.75;;;-1.90;99.90;;;;;;5055134;28;20048;-66
2022/12/17 17:28:36;;;;;;;33.83;12.88;;;-1.90;99.90;;;;;;5020362;28;20052;-65
2022/12/17 17:31:04;;;;;;;22.02;12.15;;;-1.90;99.90;;;;;;5055061;28;20037;-67
2022/12/17 17:33:31;;;;;;;27.45;12.40;;;-1.90;99.90;;;;;;5055011;28;20040;-66
2022/12/17 17:36:08;;;;;;;17.40;9.13;;;-1.80;99.90;;;;;;5054398;28;20101;-67
2022/12/17 17:38:36;;;;;;;30.33;13.13;;;-1.80;99.90;;;;;;5054906;28;20495;-66
2022/12/17 17:41:03;;;;;;;37.58;15.60;;;-1.80;99.90;;;;;;5054864;28;20037;-67
2022/12/17 17:43:29;;;;;;;25.98;11.85;;;-1.80;99.90;;;;;;5054573;28;20041;-67
2022/12/17 17:46:10;;;;;;;26.13;12.75;;;-1.90;99.90;;;;;;5053814;28;20483;-67
2022/12/17 17:48:36;;;;;;;14.38;8.70;;;-1.90;99.90;;;;;;5035677;28;20041;-66
2022/12/17 17:51:10;;;;;;;16.60;10.65;;;-1.90;99.90;;;;;;5053462;28;20045;-66
2022/12/17 17:53:36;;;;;;;24.55;12.07;;;-2.00;99.90;;;;;;5035621;28;20419;-66
2022/12/17 17:56:04;;;;;;;28.55;11.85;;;-2.00;99.90;;;;;;5053508;28;20095;-66
2022/12/17 17:58:29;;;;;;;25.85;11.05;;;-2.00;99.90;;;;;;5035418;28;20037;-67
2022/12/17 18:00:55;;;;;;;15.48;7.47;;;-2.00;99.90;;;;;;5035440;28;20047;-66
2022/12/17 18:03:21;;;;;;;21.08;11.40;;;-1.20;99.90;;;;;;5053518;28;20059;-66
2022/12/17 18:05:46;;;;;;;23.42;12.00;;;-2.00;99.90;;;;;;5053104;28;20049;-66
2022/12/17 18:08:12;;;;;;;18.30;11.50;;;-2.00;99.90;;;;;;5035336;28;20507;-66
2022/12/17 18:10:37;;;;;;;31.02;12.93;;;-2.00;99.90;;;;;;5053432;28;20403;-66
2022/12/17 18:15:47;;;;;;;30.05;15.75;;;-2.00;99.90;;;;;;5053139;28;20041;-66
2022/12/17 18:18:13;;;;;;;37.78;16.00;;;-2.00;99.90;;;;;;5053316;28;20483;-66
2022/12/17 18:20:38;;;;;;;19.15;10.70;;;-2.10;99.90;;;;;;5053249;28;20037;-66
2022/12/17 18:23:04;;;;;;;25.33;14.05;;;-2.10;99.90;;;;;;5035049;28;20064;-67
2022/12/17 18:25:29;;;;;;;27.75;11.52;;;-2.10;99.90;;;;;;5034865;28;20073;-66
2022/12/17 18:27:55;;;;;;;25.33;13.90;;;-2.10;99.90;;;;;;5053007;28;20028;-66
2022/12/17 18:30:21;;;;;;;23.10;12.98;;;-2.20;99.90;;;;;;5053051;28;20040;-66
2022/12/17 18:32:49;;;;;;;30.70;13.60;;;-2.10;99.90;;;;;;5052933;28;20041;-67
2022/12/17 18:35:15;;;;;;;27.70;14.40;;;-2.20;99.90;;;;;;5052776;28;20043;-66
2022/12/17 18:37:40;;;;;;;31.08;13.80;;;-2.20;99.90;;;;;;5052865;28;20484;-66
2022/12/17 18:40:07;;;;;;;12.63;9.90;;;-2.20;99.90;;;;;;5052110;28;20041;-66
2022/12/17 18:45:16;;;;;;;25.88;12.65;;;-2.20;99.90;;;;;;5052690;28;20044;-66
2022/12/17 18:47:43;;;;;;;38.53;14.43;;;-2.20;99.90;;;;;;5034748;28;20455;-67
2022/12/17 18:50:10;;;;;;;25.35;12.18;;;-2.30;99.90;;;;;;5052642;28;20112;-65
2022/12/17 18:52:35;;;;;;;32.60;14.57;;;-1.80;99.90;;;;;;5052201;28;20124;-66
2022/12/17 18:55:01;;;;;;;26.30;13.52;;;-2.30;99.90;;;;;;5052656;28;20125;-66
2022/12/17 18:57:26;;;;;;;20.85;12.77;;;-2.20;99.90;;;;;;5052214;28;20116;-66
2022/12/17 18:59:52;;;;;;;23.85;14.52;;;-2.30;99.90;;;;;;5052372;28;20045;-66
2022/12/17 19:02:18;;;;;;;20.80;11.05;;;-2.30;99.90;;;;;;5034683;28;20047;-66
2022/12/17 19:04:43;;;;;;;21.38;13.18;;;-2.30;99.90;;;;;;5034194;28;20102;-66
2022/12/17 19:07:09;;;;;;;17.70;10.68;;;-2.30;99.90;;;;;;5052323;28;20095;-66
2022/12/17 19:09:35;;;;;;;19.58;13.10;;;-2.30;99.90;;;;;;5052493;28;20045;-66
2022/12/17 19:12:02;;;;;;;21.90;12.73;;;-2.30;99.90;;;;;;5052046;28;20124;-66
2022/12/17 19:14:28;;;;;;;20.15;10.95;;;-2.30;99.90;;;;;;5052337;28;20041;-66
2022/12/17 19:16:56;;;;;;;10.98;6.75;;;-2.30;99.90;;;;;;5052058;28;20497;-66
2022/12/17 19:19:23;;;;;;;31.55;15.57;;;-2.30;99.90;;;;;;5052325;28;20393;-66
2022/12/17 19:21:50;;;;;;;32.33;15.60;;;-2.30;99.90;;;;;;5052327;28;20033;-66
2022/12/17 19:24:18;;;;;;;38.03;16.48;;;-2.30;99.90;;;;;;5052195;28;20043;-66
2022/12/17 19:26:44;;;;;;;38.83;17.33;;;-2.30;99.90;;;;;;5052068;28;20399;-66
2022/12/17 19:29:12;;;;;;;35.03;16.85;;;-2.30;99.90;;;;;;5052040;28;20492;-66
2022/12/17 19:31:38;;;;;;;23.85;14.65;;;-2.30;99.90;;;;;;5033875;28;20412;-66
2022/12/17 19:34:06;;;;;;;34.72;17.70;;;-2.30;99.90;;;;;;5051603;28;20242;-66
2022/12/17 19:36:34;;;;;;;27.05;14.82;;;-2.30;99.90;;;;;;5033698;28;20045;-66
2022/12/17 19:39:02;;;;;;;31.60;16.52;;;-2.30;99.90;;;;;;5051833;28;20041;-66
2022/12/17 19:41:30;;;;;;;30.15;14.05;;;-2.30;99.90;;;;;;5051704;28;20052;-66
2022/12/17 19:44:02;;;;;;;33.20;16.00;;;-2.30;99.90;;;;;;5051503;28;20033;-66
2022/12/17 19:46:29;;;;;;;21.88;11.38;;;-2.30;99.90;;;;;;5051775;28;20127;-66
2022/12/17 19:48:56;;;;;;;24.65;10.20;;;-2.30;99.90;;;;;;5052031;28;20044;-66
2022/12/17 19:51:24;;;;;;;19.85;10.27;;;-2.30;99.90;;;;;;5051810;28;20073;-66
2022/12/17 19:53:50;;;;;;;35.65;16.77;;;-2.30;99.90;;;;;;5055912;28;20403;-66
2022/12/17 19:56:24;;;;;;;39.40;19.00;;;-2.30;99.90;;;;;;5055468;28;20041;-66
2022/12/17 19:58:53;;;;;;;32.25;16.52;;;-2.30;99.90;;;;;;5038063;28;20294;-66
2022/12/17 20:01:25;;;;;;;29.27;17.95;;;-2.30;99.90;;;;;;5055516;28;20111;-66
2022/12/17 20:03:50;;;;;;;;;;;-2.30;99.90;;;;;;5056059;28;20071;-66
2022/12/17 20:06:18;;;;;;;33.22;15.38;;;-2.30;99.90;;;;;;5037545;28;20395;-66
2022/12/17 20:08:44;;;;;;;18.65;12.48;;;-2.30;99.90;;;;;;5055655;28;20045;-67
2022/12/17 20:11:45;;;;;;;35.53;16.13;;;-2.30;99.90;;;;;;5037695;28;20045;-66
2022/12/17 20:14:05;;;;;;;13.07;6.75;;;-2.40;99.90;;;;;;5051315;28;20408;-66
2022/12/17 20:16:35;;;;;;;17.90;10.07;;;-2.40;99.90;;;;;;5055473;28;20120;-66
2022/12/17 20:19:01;;;;;;;34.42;17.48;;;-2.40;99.90;;;;;;5055572;28;20037;-66
2022/12/17 20:21:28;;;;;;;32.22;17.83;;;-2.40;99.90;;;;;;5037511;28;20037;-66
2022/12/17 20:23:53;;;;;;;15.73;11.27;;;-2.40;99.90;;;;;;5055422;28;20128;-66
2022/12/17 20:26:19;;;;;;;31.25;15.25;;;-2.40;99.90;;;;;;5055354;28;20455;-67
2022/12/17 20:28:45;;;;;;;35.67;18.35;;;-2.40;99.90;;;;;;5055654;28;20040;-67
2022/12/17 20:31:11;;;;;;;34.30;15.65;;;-2.50;99.90;;;;;;5055245;28;20090;-67
2022/12/17 20:33:37;;;;;;;18.77;12.10;;;-2.50;99.90;;;;;;5037179;28;20076;-67
2022/12/17 20:36:09;;;;;;;22.42;15.32;;;-2.50;99.90;;;;;;5054766;28;20124;-67
2022/12/17 20:38:35;;;;;;;35.13;15.15;;;-1.80;99.90;;;;;;5055094;28;20497;-67
2022/12/17 20:41:06;;;;;;;38.35;17.20;;;-2.60;99.90;;;;;;5054803;28;20124;-67
2022/12/17 20:43:32;;;;;;;21.08;12.05;;;-2.50;99.90;;;;;;5054857;28;20049;-67
2022/12/17 20:46:00;;;;;;;9.07;7.30;;;-2.50;99.90;;;;;;5055066;28;20044;-68
2022/12/17 20:48:26;;;;;;;38.22;16.02;;;-2.60;99.90;;;;;;5037144;28;20135;-67
2022/12/17 20:50:51;;;;;;;28.00;14.55;;;-2.60;99.90;;;;;;5054955;28;20120;-67
2022/12/17 20:53:18;;;;;;;20.83;13.13;;;-2.60;99.90;;;;;;5036751;28;20124;-67
2022/12/17 20:55:43;;;;;;;27.00;11.75;;;-2.60;99.90;;;;;;5054581;28;20045;-67
2022/12/17 20:58:09;;;;;;;39.17;16.77;;;-2.60;99.90;;;;;;5054859;28;20052;-67
2022/12/17 21:00:34;;;;;;;28.70;14.82;;;-2.60;99.90;;;;;;5054809;28;20076;-66
2022/12/17 21:03:00;;;;;;;31.50;14.40;;;-2.70;99.90;;;;;;5054548;28;20170;-68
2022/12/17 21:05:26;;;;;;;32.10;15.45;;;-2.70;99.90;;;;;;5053678;28;20475;-67
2022/12/17 21:07:51;;;;;;;16.50;11.85;;;-2.70;99.90;;;;;;5054642;28;20056;-67
2022/12/17 21:10:18;;;;;;;35.33;13.23;;;-2.80;99.90;;;;;;5036696;28;20045;-67
2022/12/17 21:15:27;;;;;;;19.00;8.98;;;-2.80;99.90;;;;;;5054356;28;20488;-67
2022/12/17 21:17:53;;;;;;;29.88;15.23;;;-2.80;99.90;;;;;;5054145;28;20091;-68
2022/12/17 21:20:19;;;;;;;26.30;13.38;;;-2.80;99.90;;;;;;5036230;28;20041;-69
2022/12/17 21:22:44;;;;;;;35.53;16.17;;;-2.80;99.90;;;;;;5036322;28;20044;-62
2022/12/17 21:25:10;;;;;;;40.90;16.67;;;-2.80;99.90;;;;;;5054302;28;20112;-62
2022/12/17 21:27:35;;;;;;;28.83;14.82;;;-2.80;99.90;;;;;;5053813;28;20041;-62
2022/12/17 21:30:02;;;;;;;31.13;16.83;;;-2.80;99.90;;;;;;5054233;28;20037;-63
2022/12/17 21:32:27;;;;;;;26.55;12.48;;;-2.80;99.90;;;;;;5036536;28;20044;-63
2022/12/17 21:34:53;;;;;;;24.23;13.90;;;-2.80;99.90;;;;;;5054203;28;20052;-63
2022/12/17 21:37:18;;;;;;;34.80;11.85;;;-2.90;99.90;;;;;;5054028;28;20373;-63
2022/12/17 21:39:44;;;;;;;38.35;13.88;;;-2.90;99.90;;;;;;5035899;28;20072;-63
2022/12/17 21:44:54;;;;;;;21.50;11.80;;;-3.00;99.90;;;;;;5053965;28;20040;-63
2022/12/17 21:47:19;;;;;;;29.75;15.48;;;-3.00;99.90;;;;;;5019178;28;20047;-63
2022/12/17 21:49:45;;;;;;;34.70;14.25;;;-3.10;99.90;;;;;;5053793;28;20044;-62
2022/12/17 21:52:11;;;;;;;18.08;11.00;;;-3.10;99.90;;;;;;5053474;28;20076;-63
2022/12/17 21:54:37;;;;;;;12.30;5.57;;;-3.10;99.90;;;;;;5053745;28;20040;-63
2022/12/17 21:57:02;;;;;;;27.02;13.40;;;-3.10;99.90;;;;;;5035450;28;20083;-64
2022/12/17 21:59:28;;;;;;;19.77;11.40;;;-3.10;99.90;;;;;;5053697;28;20041;-62
2022/12/17 22:01:55;;;;;;;22.45;13.60;;;-3.10;99.90;;;;;;5053420;28;20512;-63
2022/12/17 22:04:22;;;;;;;19.35;10.43;;;-3.10;99.90;;;;;;5035149;28;20068;-63
2022/12/17 22:06:48;;;;;;;18.52;9.43;;;-3.10;99.90;;;;;;5053518;28;20056;-65
2022/12/17 22:09:13;;;;;;;16.92;11.63;;;-3.20;99.90;;;;;;5035489;28;20048;-65
2022/12/17 22:11:39;;;;;;;12.75;9.32;;;-3.20;99.90;;;;;;5035513;28;20041;-65
2022/12/17 22:14:05;;;;;;;34.72;17.17;;;-3.10;99.90;;;;;;5018742;28;20094;-65
2022/12/17 22:16:38;;;;;;;22.40;8.50;;;-3.10;99.90;;;;;;5052097;28;20037;-65
2022/12/17 22:19:09;;;;;;;26.83;13.77;;;-3.10;99.90;;;;;;5035403;28;20106;-65
2022/12/17 22:21:37;;;;;;;25.13;10.15;;;-3.10;99.90;;;;;;5053270;28;20480;-65
2022/12/17 22:24:03;;;;;;;27.13;14.60;;;-3.10;99.90;;;;;;5053165;28;20068;-65
2022/12/17 22:26:29;;;;;;;29.17;15.20;;;-3.20;99.90;;;;;;5053152;28;20049;-65
2022/12/17 22:28:55;;;;;;;28.75;13.73;;;-3.10;99.90;;;;;;5053064;28;20043;-65
2022/12/17 22:34:08;;;;;;;15.77;10.43;;;-3.20;99.90;;;;;;5052874;28;20040;-65
2022/12/17 22:36:34;;;;;;;23.45;11.55;;;-2.80;99.90;;;;;;5034826;28;20037;-65
2022/12/17 22:39:01;;;;;;;22.65;12.80;;;-3.20;99.90;;;;;;5053135;28;20044;-65
2022/12/17 22:44:11;;;;;;;18.75;12.27;;;-3.20;99.90;;;;;;5053557;28;20041;-65
2022/12/17 22:46:37;;;;;;;19.85;11.23;;;-3.30;99.90;;;;;;5052992;28;20037;-65
2022/12/17 22:49:03;;;;;;;27.48;10.73;;;-3.30;99.90;;;;;;5052528;28;20036;-65
2022/12/17 22:51:29;;;;;;;27.17;9.93;;;-3.30;99.90;;;;;;5052417;28;20044;-65
2022/12/17 22:53:54;;;;;;;47.40;14.73;;;-3.30;99.90;;;;;;5052397;28;20443;-65
2022/12/17 22:56:21;;;;;;;26.77;13.40;;;-3.30;99.90;;;;;;5052244;28;20041;-65
2022/12/17 22:58:46;;;;;;;19.85;12.07;;;-3.30;99.90;;;;;;5052327;28;20081;-65
2022/12/17 23:01:12;;;;;;;17.80;9.02;;;-3.30;99.90;;;;;;5052709;28;20044;-65
2022/12/17 23:03:38;;;;;;;22.48;8.07;;;-3.40;99.90;;;;;;5053531;28;20029;-65
2022/12/17 23:06:06;;;;;;;28.27;11.02;;;-3.40;99.90;;;;;;5035225;28;20128;-67
2022/12/17 23:08:32;;;;;;;11.85;7.35;;;-3.30;99.90;;;;;;5035316;28;20150;-65
2022/12/17 23:10:57;;;;;;;21.33;10.77;;;-3.40;99.90;;;;;;5053160;28;20076;-65
2022/12/17 23:13:23;;;;;;;20.73;10.70;;;-3.40;99.90;;;;;;5053393;28;20041;-65
2022/12/17 23:15:50;;;;;;;31.02;14.60;;;-3.40;99.90;;;;;;5018680;28;20047;-65
2022/12/17 23:18:15;;;;;;;30.33;12.07;;;-3.50;99.90;;;;;;5053274;28;20037;-65
2022/12/17 23:20:41;;;;;;;32.67;12.60;;;-3.50;99.90;;;;;;5035078;28;20045;-65
2022/12/17 23:23:06;;;;;;;25.13;10.93;;;-3.40;99.90;;;;;;5035441;28;20060;-65
2022/12/17 23:25:32;;;;;;;26.83;11.30;;;-3.40;99.90;;;;;;5053237;28;20047;-65
2022/12/17 23:27:58;;;;;;;20.35;10.20;;;-3.50;99.90;;;;;;5034741;28;20079;-65
2022/12/17 23:30:23;;;;;;;39.60;11.43;;;-3.50;99.90;;;;;;5052822;28;20511;-65
2022/12/17 23:32:49;;;;;;;29.58;13.20;;;-3.50;99.90;;;;;;5052772;28;20041;-65
2022/12/17 23:35:15;;;;;;;18.48;10.40;;;-3.50;99.90;;;;;;5034882;28;20034;-65
2022/12/17 23:37:41;;;;;;;19.98;10.70;;;-3.50;99.90;;;;;;5035261;28;20132;-65
2022/12/17 23:40:11;;;;;;;28.15;12.55;;;-3.50;99.90;;;;;;5035238;28;20527;-65
2022/12/17 23:42:37;;;;;;;27.08;13.13;;;-3.40;99.90;;;;;;5052947;28;20036;-65
2022/12/17 23:45:04;;;;;;;20.65;11.48;;;-3.40;99.90;;;;;;5018445;28;20099;-65
2022/12/17 23:47:30;;;;;;;25.67;12.65;;;-3.40;99.90;;;;;;5034780;28;20041;-65
2022/12/17 23:49:56;;;;;;;29.33;13.20;;;-3.50;99.90;;;;;;5034801;28;20102;-65
2022/12/17 23:52:21;;;;;;;19.38;10.55;;;-3.40;99.90;;;;;;5035100;28;20506;-65
2022/12/17 23:54:47;;;;;;;19.48;10.18;;;-3.50;99.90;;;;;;5052896;28;20071;-65
2022/12/17 23:57:12;;;;;;;21.27;11.25;;;-3.50;99.90;;;;;;5052813;28;20048;-65
2022/12/17 23:59:38;;;;;;;26.58;11.65;;;-3.40;99.90;;;;;;5052794;28;20119;-65
